createdAt,value
2022-11-25T00:00:03.971Z,588.00
2022-11-25T00:00:33.978Z,592.00
2022-11-25T00:01:03.977Z,591.00
2022-11-25T00:01:34.007Z,593.00
2022-11-25T00:02:04.064Z,592.00
2022-11-25T00:02:34.220Z,592.00
2022-11-25T00:03:04.292Z,593.00
2022-11-25T00:03:34.269Z,593.00
2022-11-25T00:04:04.244Z,594.00
2022-11-25T00:04:34.621Z,594.00
2022-11-25T00:05:04.434Z,595.00
2022-11-25T00:05:34.524Z,596.00
2022-11-25T00:06:04.631Z,594.00
2022-11-25T00:06:34.703Z,592.00
2022-11-25T00:07:04.782Z,596.00
2022-11-25T00:07:34.938Z,596.00
2022-11-25T00:08:04.917Z,596.00
2022-11-25T00:08:35.001Z,597.00
2022-11-25T00:09:05.074Z,597.00
2022-11-25T00:09:35.146Z,598.00
2022-11-25T00:10:05.231Z,600.00
2022-11-25T00:10:35.314Z,600.00
2022-11-25T00:11:05.393Z,599.00
2022-11-25T00:11:35.494Z,600.00
2022-11-25T00:12:05.582Z,600.00
2022-11-25T00:12:35.660Z,599.00
2022-11-25T00:13:05.763Z,597.00
2022-11-25T00:13:35.772Z,598.00
2022-11-25T00:14:05.772Z,598.00
2022-11-25T00:14:36.176Z,596.00
2022-11-25T00:15:05.863Z,596.00
2022-11-25T00:15:35.968Z,595.00
2022-11-25T00:16:06.001Z,591.00
2022-11-25T00:16:36.164Z,592.00
2022-11-25T00:17:06.115Z,591.00
2022-11-25T00:17:36.033Z,590.00
2022-11-25T00:18:06.046Z,592.00
2022-11-25T00:18:36.062Z,593.00
2022-11-25T00:19:06.060Z,594.00
2022-11-25T00:19:36.069Z,592.00
2022-11-25T00:20:06.073Z,590.00
2022-11-25T00:20:36.086Z,589.00
2022-11-25T00:21:06.103Z,591.00
2022-11-25T00:21:36.160Z,590.00
2022-11-25T00:22:06.140Z,592.00
2022-11-25T00:22:36.157Z,592.00
2022-11-25T00:23:06.182Z,592.00
2022-11-25T00:23:36.189Z,592.00
2022-11-25T00:24:06.185Z,591.00
2022-11-25T00:24:36.464Z,590.00
2022-11-25T00:25:06.277Z,590.00
2022-11-25T00:25:36.281Z,588.00
2022-11-25T00:26:06.291Z,590.00
2022-11-25T00:26:36.285Z,591.00
2022-11-25T00:27:06.279Z,590.00
2022-11-25T00:27:36.289Z,590.00
2022-11-25T00:28:06.295Z,585.00
2022-11-25T00:28:36.301Z,585.00
2022-11-25T00:29:06.306Z,584.00
2022-11-25T00:29:36.310Z,583.00
2022-11-25T00:30:06.324Z,584.00
2022-11-25T00:30:36.321Z,583.00
2022-11-25T00:31:06.326Z,581.00
2022-11-25T00:31:36.370Z,582.00
2022-11-25T00:32:06.482Z,583.00
2022-11-25T00:32:36.364Z,585.00
2022-11-25T00:33:06.378Z,583.00
2022-11-25T00:33:36.381Z,586.00
2022-11-25T00:34:06.379Z,585.00
2022-11-25T00:34:36.740Z,583.00
2022-11-25T00:35:06.466Z,583.00
2022-11-25T00:35:36.463Z,584.00
2022-11-25T00:36:06.458Z,582.00
2022-11-25T00:36:36.484Z,584.00
2022-11-25T00:37:06.507Z,584.00
2022-11-25T00:37:36.507Z,584.00
2022-11-25T00:38:06.494Z,585.00
2022-11-25T00:38:36.496Z,582.00
2022-11-25T00:39:06.505Z,583.00
2022-11-25T00:39:36.507Z,582.00
2022-11-25T00:40:06.514Z,581.00
2022-11-25T00:40:36.510Z,584.00
2022-11-25T00:41:06.611Z,583.00
2022-11-25T00:41:36.658Z,584.00
2022-11-25T00:42:06.664Z,585.00
2022-11-25T00:42:36.673Z,585.00
2022-11-25T00:43:06.690Z,584.00
2022-11-25T00:43:36.692Z,583.00
2022-11-25T00:44:06.810Z,582.00
2022-11-25T00:44:37.863Z,584.00
2022-11-25T00:45:06.853Z,584.00
2022-11-25T00:45:36.904Z,584.00
2022-11-25T00:46:06.975Z,586.00
2022-11-25T00:46:37.025Z,586.00
2022-11-25T00:47:07.033Z,588.00
2022-11-25T00:47:37.032Z,587.00
2022-11-25T00:48:07.050Z,587.00
2022-11-25T00:48:37.070Z,587.00
2022-11-25T00:49:07.059Z,586.00
2022-11-25T00:49:37.062Z,583.00
2022-11-25T00:50:07.063Z,584.00
2022-11-25T00:50:37.077Z,587.00
2022-11-25T00:51:07.093Z,587.00
2022-11-25T00:51:37.103Z,589.00
2022-11-25T00:52:07.113Z,588.00
2022-11-25T00:52:37.148Z,586.00
2022-11-25T00:53:07.124Z,587.00
2022-11-25T00:53:37.137Z,586.00
2022-11-25T00:54:07.151Z,585.00
2022-11-25T00:54:37.477Z,589.00
2022-11-25T00:55:07.272Z,588.00
2022-11-25T00:55:37.262Z,589.00
2022-11-25T00:56:07.259Z,589.00
2022-11-25T00:56:37.272Z,588.00
2022-11-25T00:57:07.272Z,588.00
2022-11-25T00:57:37.289Z,588.00
2022-11-25T00:58:07.293Z,588.00
2022-11-25T00:58:37.295Z,589.00
2022-11-25T00:59:07.304Z,590.00
2022-11-25T00:59:37.319Z,590.00
2022-11-25T01:00:07.328Z,591.00
2022-11-25T01:00:37.328Z,592.00
2022-11-25T01:01:07.430Z,589.00
2022-11-25T01:01:37.463Z,588.00
2022-11-25T01:02:07.514Z,590.00
2022-11-25T01:02:37.586Z,590.00
2022-11-25T01:03:07.582Z,589.00
2022-11-25T01:03:37.681Z,588.00
2022-11-25T01:04:07.783Z,587.00
2022-11-25T01:04:38.170Z,588.00
2022-11-25T01:05:07.869Z,589.00
2022-11-25T01:05:37.972Z,590.00
2022-11-25T01:06:08.079Z,589.00
2022-11-25T01:06:38.159Z,589.00
2022-11-25T01:07:08.405Z,589.00
2022-11-25T01:07:38.345Z,590.00
2022-11-25T01:08:08.318Z,588.00
2022-11-25T01:08:38.390Z,588.00
2022-11-25T01:09:08.500Z,590.00
2022-11-25T01:09:38.578Z,588.00
2022-11-25T01:10:08.670Z,587.00
2022-11-25T01:10:38.763Z,588.00
2022-11-25T01:11:08.839Z,588.00
2022-11-25T01:11:38.931Z,588.00
2022-11-25T01:12:08.970Z,587.00
2022-11-25T01:12:39.053Z,587.00
2022-11-25T01:13:09.047Z,588.00
2022-11-25T01:13:39.062Z,587.00
2022-11-25T01:14:09.088Z,586.00
2022-11-25T01:14:39.407Z,587.00
2022-11-25T01:15:09.088Z,588.00
2022-11-25T01:15:39.093Z,589.00
2022-11-25T01:16:09.176Z,591.00
2022-11-25T01:16:39.221Z,589.00
2022-11-25T01:17:09.227Z,586.00
2022-11-25T01:17:39.230Z,585.00
2022-11-25T01:18:09.246Z,586.00
2022-11-25T01:18:39.251Z,586.00
2022-11-25T01:19:09.298Z,587.00
2022-11-25T01:19:39.313Z,586.00
2022-11-25T01:20:09.332Z,588.00
2022-11-25T01:20:39.340Z,588.00
2022-11-25T01:21:09.340Z,589.00
2022-11-25T01:21:39.349Z,590.00
2022-11-25T01:22:09.365Z,590.00
2022-11-25T01:22:39.367Z,591.00
2022-11-25T01:23:09.370Z,591.00
2022-11-25T01:23:39.412Z,589.00
2022-11-25T01:24:09.388Z,587.00
2022-11-25T01:24:39.396Z,587.00
2022-11-25T01:25:09.402Z,588.00
2022-11-25T01:25:39.449Z,587.00
2022-11-25T01:26:09.477Z,588.00
2022-11-25T01:26:39.477Z,591.00
2022-11-25T01:27:09.496Z,591.00
2022-11-25T01:27:39.480Z,592.00
2022-11-25T01:28:09.473Z,592.00
2022-11-25T01:28:39.488Z,592.00
2022-11-25T01:29:09.527Z,590.00
2022-11-25T01:29:39.525Z,589.00
2022-11-25T01:30:09.527Z,589.00
2022-11-25T01:30:41.297Z,590.00
2022-11-25T01:31:09.581Z,589.00
2022-11-25T01:31:39.619Z,589.00
2022-11-25T01:32:09.662Z,591.00
2022-11-25T01:32:39.708Z,590.00
2022-11-25T01:33:09.718Z,588.00
2022-11-25T01:33:39.726Z,589.00
2022-11-25T01:34:09.724Z,587.00
2022-11-25T01:34:39.750Z,586.00
2022-11-25T01:35:09.760Z,586.00
2022-11-25T01:35:39.779Z,587.00
2022-11-25T01:36:09.785Z,585.00
2022-11-25T01:36:39.804Z,586.00
2022-11-25T01:37:09.810Z,586.00
2022-11-25T01:37:39.809Z,584.00
2022-11-25T01:38:09.825Z,583.00
2022-11-25T01:38:39.842Z,583.00
2022-11-25T01:39:09.877Z,584.00
2022-11-25T01:39:39.876Z,584.00
2022-11-25T01:40:09.890Z,584.00
2022-11-25T01:40:39.913Z,584.00
2022-11-25T01:41:09.904Z,585.00
2022-11-25T01:41:39.908Z,586.00
2022-11-25T01:42:09.921Z,587.00
2022-11-25T01:42:39.922Z,587.00
2022-11-25T01:43:09.939Z,588.00
2022-11-25T01:43:39.946Z,588.00
2022-11-25T01:44:09.944Z,588.00
2022-11-25T01:44:40.066Z,588.00
2022-11-25T01:45:10.078Z,586.00
2022-11-25T01:45:40.209Z,584.00
2022-11-25T01:46:10.191Z,586.00
2022-11-25T01:46:40.180Z,585.00
2022-11-25T01:47:10.167Z,587.00
2022-11-25T01:47:40.175Z,586.00
2022-11-25T01:48:10.186Z,586.00
2022-11-25T01:48:40.192Z,583.00
2022-11-25T01:49:10.211Z,585.00
2022-11-25T01:49:40.221Z,585.00
2022-11-25T01:50:10.228Z,583.00
2022-11-25T01:50:40.257Z,583.00
2022-11-25T01:51:10.271Z,581.00
2022-11-25T01:51:40.265Z,582.00
2022-11-25T01:52:10.280Z,582.00
2022-11-25T01:52:40.275Z,582.00
2022-11-25T01:53:10.280Z,583.00
2022-11-25T01:53:40.284Z,584.00
2022-11-25T01:54:10.285Z,582.00
2022-11-25T01:54:40.326Z,582.00
2022-11-25T01:55:10.322Z,583.00
2022-11-25T01:55:40.336Z,584.00
2022-11-25T01:56:10.337Z,585.00
2022-11-25T01:56:40.450Z,585.00
2022-11-25T01:57:10.450Z,585.00
2022-11-25T01:57:40.453Z,585.00
2022-11-25T01:58:10.467Z,584.00
2022-11-25T01:58:40.468Z,581.00
2022-11-25T01:59:10.471Z,581.00
2022-11-25T01:59:40.482Z,581.00
2022-11-25T02:00:10.508Z,580.00
2022-11-25T02:00:40.513Z,580.00
2022-11-25T02:01:10.597Z,579.00
2022-11-25T02:01:40.690Z,580.00
2022-11-25T02:02:10.655Z,578.00
2022-11-25T02:02:40.730Z,580.00
2022-11-25T02:03:10.739Z,580.00
2022-11-25T02:03:40.794Z,582.00
2022-11-25T02:04:10.896Z,581.00
2022-11-25T02:04:40.987Z,581.00
2022-11-25T02:05:11.084Z,580.00
2022-11-25T02:05:41.164Z,580.00
2022-11-25T02:06:11.245Z,577.00
2022-11-25T02:06:41.342Z,578.00
2022-11-25T02:07:11.509Z,578.00
2022-11-25T02:07:41.574Z,578.00
2022-11-25T02:08:11.568Z,579.00
2022-11-25T02:08:41.639Z,579.00
2022-11-25T02:09:11.730Z,582.00
2022-11-25T02:09:41.821Z,581.00
2022-11-25T02:10:11.933Z,580.00
2022-11-25T02:10:41.990Z,583.00
2022-11-25T02:11:12.082Z,581.00
2022-11-25T02:11:42.165Z,581.00
2022-11-25T02:12:12.263Z,581.00
2022-11-25T02:12:42.364Z,580.00
2022-11-25T02:13:12.365Z,581.00
2022-11-25T02:13:42.372Z,580.00
2022-11-25T02:14:12.390Z,579.00
2022-11-25T02:14:42.406Z,578.00
2022-11-25T02:15:12.397Z,575.00
2022-11-25T02:15:42.418Z,575.00
2022-11-25T02:16:12.513Z,575.00
2022-11-25T02:16:42.588Z,575.00
2022-11-25T02:17:12.614Z,576.00
2022-11-25T02:17:42.608Z,577.00
2022-11-25T02:18:12.623Z,578.00
2022-11-25T02:18:42.631Z,578.00
2022-11-25T02:19:12.635Z,577.00
2022-11-25T02:19:42.646Z,575.00
2022-11-25T02:20:12.647Z,576.00
2022-11-25T02:20:42.664Z,577.00
2022-11-25T02:21:12.681Z,575.00
2022-11-25T02:21:42.690Z,575.00
2022-11-25T02:22:12.690Z,573.00
2022-11-25T02:22:42.713Z,575.00
2022-11-25T02:23:12.731Z,574.00
2022-11-25T02:23:42.731Z,573.00
2022-11-25T02:24:12.770Z,572.00
2022-11-25T02:24:42.806Z,572.00
2022-11-25T02:25:12.817Z,573.00
2022-11-25T02:25:42.859Z,573.00
2022-11-25T02:26:12.849Z,573.00
2022-11-25T02:26:42.844Z,576.00
2022-11-25T02:27:12.851Z,574.00
2022-11-25T02:27:42.859Z,575.00
2022-11-25T02:28:12.871Z,576.00
2022-11-25T02:28:42.898Z,575.00
2022-11-25T02:29:12.917Z,575.00
2022-11-25T02:29:42.958Z,574.00
2022-11-25T02:30:12.959Z,573.00
2022-11-25T02:30:42.984Z,576.00
2022-11-25T02:31:13.041Z,576.00
2022-11-25T02:31:43.126Z,576.00
2022-11-25T02:32:13.166Z,575.00
2022-11-25T02:32:43.167Z,574.00
2022-11-25T02:33:13.193Z,573.00
2022-11-25T02:33:43.174Z,574.00
2022-11-25T02:34:13.173Z,571.00
2022-11-25T02:34:43.227Z,571.00
2022-11-25T02:35:13.240Z,569.00
2022-11-25T02:35:43.245Z,569.00
2022-11-25T02:36:13.271Z,570.00
2022-11-25T02:36:43.255Z,571.00
2022-11-25T02:37:13.271Z,572.00
2022-11-25T02:37:43.274Z,571.00
2022-11-25T02:38:13.298Z,572.00
2022-11-25T02:38:43.306Z,574.00
2022-11-25T02:39:13.317Z,574.00
2022-11-25T02:39:43.342Z,574.00
2022-11-25T02:40:13.341Z,576.00
2022-11-25T02:40:43.355Z,576.00
2022-11-25T02:41:13.410Z,576.00
2022-11-25T02:41:43.401Z,576.00
2022-11-25T02:42:13.404Z,578.00
2022-11-25T02:42:43.405Z,578.00
2022-11-25T02:43:13.411Z,580.00
2022-11-25T02:43:43.426Z,579.00
2022-11-25T02:44:13.434Z,579.00
2022-11-25T02:44:43.468Z,579.00
2022-11-25T02:45:13.478Z,579.00
2022-11-25T02:45:43.606Z,578.00
2022-11-25T02:46:18.849Z,578.00
2022-11-25T02:46:43.539Z,575.00
2022-11-25T02:47:13.530Z,576.00
2022-11-25T02:47:43.523Z,576.00
2022-11-25T02:48:13.527Z,577.00
2022-11-25T02:49:07.914Z,577.00
2022-11-25T02:49:13.662Z,576.00
2022-11-25T02:49:43.698Z,577.00
2022-11-25T02:50:13.699Z,575.00
2022-11-25T02:50:43.724Z,574.00
2022-11-25T02:51:13.723Z,574.00
2022-11-25T02:51:43.734Z,574.00
2022-11-25T02:52:13.746Z,575.00
2022-11-25T02:52:43.724Z,573.00
2022-11-25T02:53:13.737Z,571.00
2022-11-25T02:53:43.740Z,572.00
2022-11-25T02:54:13.754Z,573.00
2022-11-25T02:54:44.028Z,573.00
2022-11-25T02:55:13.791Z,576.00
2022-11-25T02:55:43.808Z,576.00
2022-11-25T02:56:13.811Z,575.00
2022-11-25T02:56:43.836Z,576.00
2022-11-25T02:57:13.823Z,576.00
2022-11-25T02:57:43.817Z,576.00
2022-11-25T02:58:13.838Z,578.00
2022-11-25T02:58:43.845Z,578.00
2022-11-25T02:59:13.862Z,578.00
2022-11-25T02:59:43.907Z,578.00
2022-11-25T03:00:13.896Z,577.00
2022-11-25T03:00:43.995Z,578.00
2022-11-25T03:01:14.048Z,580.00
2022-11-25T03:01:44.081Z,578.00
2022-11-25T03:02:14.190Z,579.00
2022-11-25T03:02:44.286Z,581.00
2022-11-25T03:03:14.235Z,580.00
2022-11-25T03:03:44.328Z,579.00
2022-11-25T03:04:14.418Z,576.00
2022-11-25T03:04:44.539Z,576.00
2022-11-25T03:05:14.515Z,578.00
2022-11-25T03:05:44.599Z,578.00
2022-11-25T03:06:14.696Z,581.00
2022-11-25T03:06:44.776Z,582.00
2022-11-25T03:07:14.940Z,582.00
2022-11-25T03:07:44.960Z,580.00
2022-11-25T03:08:14.965Z,579.00
2022-11-25T03:08:45.050Z,581.00
2022-11-25T03:09:15.137Z,579.00
2022-11-25T03:09:45.227Z,578.00
2022-11-25T03:10:15.318Z,578.00
2022-11-25T03:10:45.388Z,577.00
2022-11-25T03:11:15.477Z,578.00
2022-11-25T03:11:45.563Z,576.00
2022-11-25T03:12:15.673Z,577.00
2022-11-25T03:12:45.734Z,576.00
2022-11-25T03:13:15.748Z,575.00
2022-11-25T03:13:45.755Z,576.00
2022-11-25T03:14:15.765Z,577.00
2022-11-25T03:14:45.770Z,578.00
2022-11-25T03:15:15.789Z,578.00
2022-11-25T03:15:45.776Z,580.00
2022-11-25T03:16:15.851Z,580.00
2022-11-25T03:16:46.039Z,580.00
2022-11-25T03:17:15.923Z,580.00
2022-11-25T03:17:45.919Z,580.00
2022-11-25T03:18:15.930Z,578.00
2022-11-25T03:18:45.941Z,579.00
2022-11-25T03:19:15.952Z,577.00
2022-11-25T03:19:46.082Z,578.00
2022-11-25T03:20:16.092Z,575.00
2022-11-25T03:20:46.099Z,577.00
2022-11-25T03:21:16.104Z,576.00
2022-11-25T03:21:46.119Z,573.00
2022-11-25T03:22:16.118Z,574.00
2022-11-25T03:22:46.238Z,574.00
2022-11-25T03:23:16.238Z,576.00
2022-11-25T03:23:46.238Z,575.00
2022-11-25T03:24:16.241Z,574.00
2022-11-25T03:24:46.271Z,574.00
2022-11-25T03:25:16.252Z,575.00
2022-11-25T03:25:46.266Z,574.00
2022-11-25T03:26:16.268Z,575.00
2022-11-25T03:26:46.272Z,576.00
2022-11-25T03:27:16.290Z,575.00
2022-11-25T03:27:46.317Z,576.00
2022-11-25T03:28:16.300Z,577.00
2022-11-25T03:28:46.306Z,579.00
2022-11-25T03:29:16.311Z,579.00
2022-11-25T03:29:46.325Z,578.00
2022-11-25T03:30:16.327Z,578.00
2022-11-25T03:30:46.340Z,578.00
2022-11-25T03:31:16.406Z,579.00
2022-11-25T03:31:46.517Z,579.00
2022-11-25T03:32:16.453Z,578.00
2022-11-25T03:32:46.505Z,576.00
2022-11-25T03:33:16.510Z,576.00
2022-11-25T03:33:46.516Z,577.00
2022-11-25T03:34:16.528Z,576.00
2022-11-25T03:34:46.568Z,575.00
2022-11-25T03:35:16.572Z,574.00
2022-11-25T03:35:46.583Z,575.00
2022-11-25T03:36:16.605Z,575.00
2022-11-25T03:36:46.636Z,576.00
2022-11-25T03:37:16.681Z,575.00
2022-11-25T03:37:46.670Z,575.00
2022-11-25T03:38:16.683Z,575.00
2022-11-25T03:38:46.689Z,576.00
2022-11-25T03:39:16.707Z,577.00
2022-11-25T03:39:46.715Z,577.00
2022-11-25T03:40:16.732Z,576.00
2022-11-25T03:40:46.752Z,574.00
2022-11-25T03:41:16.763Z,575.00
2022-11-25T03:41:46.765Z,575.00
2022-11-25T03:42:16.781Z,575.00
2022-11-25T03:42:46.781Z,576.00
2022-11-25T03:43:16.824Z,577.00
2022-11-25T03:43:46.808Z,579.00
2022-11-25T03:44:16.832Z,580.00
2022-11-25T03:44:46.835Z,581.00
2022-11-25T03:45:16.839Z,580.00
2022-11-25T03:45:46.976Z,577.00
2022-11-25T03:46:16.921Z,577.00
2022-11-25T03:46:46.931Z,577.00
2022-11-25T03:47:16.950Z,578.00
2022-11-25T03:47:46.947Z,577.00
2022-11-25T03:48:16.959Z,575.00
2022-11-25T03:48:46.972Z,574.00
2022-11-25T03:49:17.026Z,574.00
2022-11-25T03:49:47.026Z,573.00
2022-11-25T03:50:17.070Z,573.00
2022-11-25T03:50:47.057Z,572.00
2022-11-25T03:51:17.070Z,571.00
2022-11-25T03:51:47.074Z,571.00
2022-11-25T03:52:17.100Z,570.00
2022-11-25T03:52:47.114Z,569.00
2022-11-25T03:53:17.118Z,570.00
2022-11-25T03:53:47.125Z,570.00
2022-11-25T03:54:17.134Z,571.00
2022-11-25T03:54:47.128Z,573.00
2022-11-25T03:55:17.149Z,571.00
2022-11-25T03:55:47.169Z,570.00
2022-11-25T03:56:17.174Z,570.00
2022-11-25T03:56:47.176Z,570.00
2022-11-25T03:57:17.180Z,573.00
2022-11-25T03:57:47.184Z,573.00
2022-11-25T03:58:17.185Z,572.00
2022-11-25T03:58:47.220Z,573.00
2022-11-25T03:59:17.220Z,574.00
2022-11-25T03:59:47.226Z,575.00
2022-11-25T04:00:17.249Z,573.00
2022-11-25T04:00:47.261Z,574.00
2022-11-25T04:01:17.335Z,575.00
2022-11-25T04:01:47.479Z,575.00
2022-11-25T04:02:17.515Z,575.00
2022-11-25T04:02:47.614Z,574.00
2022-11-25T04:03:17.597Z,572.00
2022-11-25T04:03:47.688Z,573.00
2022-11-25T04:04:17.770Z,574.00
2022-11-25T04:04:47.858Z,574.00
2022-11-25T04:05:17.946Z,573.00
2022-11-25T04:05:48.022Z,573.00
2022-11-25T04:06:18.108Z,572.00
2022-11-25T04:06:48.194Z,572.00
2022-11-25T04:07:18.318Z,573.00
2022-11-25T04:07:51.177Z,575.00
2022-11-25T04:08:18.384Z,575.00
2022-11-25T04:08:48.459Z,575.00
2022-11-25T04:09:18.570Z,575.00
2022-11-25T04:09:48.650Z,575.00
2022-11-25T04:10:18.728Z,576.00
2022-11-25T04:10:48.813Z,577.00
2022-11-25T04:11:18.900Z,575.00
2022-11-25T04:11:49.001Z,574.00
2022-11-25T04:12:19.085Z,575.00
2022-11-25T04:12:49.175Z,574.00
2022-11-25T04:13:19.180Z,574.00
2022-11-25T04:13:49.186Z,573.00
2022-11-25T04:14:19.256Z,573.00
2022-11-25T04:14:49.230Z,573.00
2022-11-25T04:15:19.236Z,574.00
2022-11-25T04:15:49.257Z,575.00
2022-11-25T04:16:19.305Z,574.00
2022-11-25T04:16:49.411Z,574.00
2022-11-25T04:17:19.302Z,573.00
2022-11-25T04:17:49.306Z,573.00
2022-11-25T04:18:19.309Z,574.00
2022-11-25T04:18:49.323Z,572.00
2022-11-25T04:19:19.327Z,574.00
2022-11-25T04:19:49.338Z,572.00
2022-11-25T04:20:19.342Z,570.00
2022-11-25T04:20:49.354Z,570.00
2022-11-25T04:21:19.358Z,570.00
2022-11-25T04:21:52.323Z,571.00
2022-11-25T04:22:19.396Z,572.00
2022-11-25T04:22:49.399Z,571.00
2022-11-25T04:23:19.398Z,572.00
2022-11-25T04:23:49.419Z,569.00
2022-11-25T04:24:19.434Z,571.00
2022-11-25T04:24:49.443Z,571.00
2022-11-25T04:25:19.436Z,572.00
2022-11-25T04:25:49.442Z,571.00
2022-11-25T04:26:19.446Z,571.00
2022-11-25T04:26:49.450Z,572.00
2022-11-25T04:27:20.614Z,571.00
2022-11-25T04:27:49.491Z,571.00
2022-11-25T04:28:19.498Z,572.00
2022-11-25T04:28:49.507Z,570.00
2022-11-25T04:29:19.517Z,572.00
2022-11-25T04:29:49.551Z,572.00
2022-11-25T04:30:19.527Z,569.00
2022-11-25T04:30:49.593Z,570.00
2022-11-25T04:31:19.662Z,567.00
2022-11-25T04:31:49.684Z,571.00
2022-11-25T04:32:19.694Z,569.00
2022-11-25T04:32:49.694Z,571.00
2022-11-25T04:33:19.695Z,569.00
2022-11-25T04:33:52.571Z,568.00
2022-11-25T04:34:19.782Z,567.00
2022-11-25T04:34:49.797Z,566.00
2022-11-25T04:35:19.791Z,564.00
2022-11-25T04:35:49.815Z,565.00
2022-11-25T04:36:19.821Z,563.00
2022-11-25T04:36:49.827Z,559.00
2022-11-25T04:37:19.846Z,562.00
2022-11-25T04:37:49.850Z,565.00
2022-11-25T04:38:19.852Z,569.00
2022-11-25T04:38:49.859Z,570.00
2022-11-25T04:39:19.866Z,573.00
2022-11-25T04:39:49.879Z,573.00
2022-11-25T04:40:19.886Z,573.00
2022-11-25T04:40:49.893Z,571.00
2022-11-25T04:41:19.893Z,572.00
2022-11-25T04:41:49.910Z,573.00
2022-11-25T04:42:19.907Z,575.00
2022-11-25T04:42:49.916Z,575.00
2022-11-25T04:43:19.932Z,576.00
2022-11-25T04:43:49.936Z,575.00
2022-11-25T04:44:19.943Z,573.00
2022-11-25T04:45:07.553Z,574.00
2022-11-25T04:45:24.041Z,572.00
2022-11-25T04:46:15.296Z,570.00
2022-11-25T04:46:20.283Z,569.00
2022-11-25T04:46:50.319Z,568.00
2022-11-25T04:47:20.229Z,569.00
2022-11-25T04:47:50.238Z,568.00
2022-11-25T04:48:20.241Z,569.00
2022-11-25T04:48:50.242Z,571.00
2022-11-25T04:49:20.249Z,570.00
2022-11-25T04:49:50.256Z,568.00
2022-11-25T04:50:20.270Z,571.00
2022-11-25T04:50:50.276Z,569.00
2022-11-25T04:51:20.289Z,568.00
2022-11-25T04:51:50.291Z,567.00
2022-11-25T04:52:20.297Z,570.00
2022-11-25T04:52:50.305Z,567.00
2022-11-25T04:53:20.315Z,568.00
2022-11-25T04:53:50.328Z,567.00
2022-11-25T04:54:20.325Z,569.00
2022-11-25T04:54:50.362Z,568.00
2022-11-25T04:55:20.371Z,570.00
2022-11-25T04:55:50.383Z,568.00
2022-11-25T04:56:20.381Z,567.00
2022-11-25T04:56:50.386Z,568.00
2022-11-25T04:57:20.394Z,569.00
2022-11-25T04:57:50.403Z,568.00
2022-11-25T04:58:20.410Z,569.00
2022-11-25T04:58:50.413Z,569.00
2022-11-25T04:59:20.422Z,568.00
2022-11-25T04:59:50.425Z,568.00
2022-11-25T05:00:20.426Z,569.00
2022-11-25T05:00:50.464Z,569.00
2022-11-25T05:01:20.548Z,570.00
2022-11-25T05:01:50.601Z,569.00
2022-11-25T05:02:20.706Z,573.00
2022-11-25T05:02:50.718Z,573.00
2022-11-25T05:03:20.802Z,573.00
2022-11-25T05:03:57.136Z,573.00
2022-11-25T05:04:20.950Z,572.00
2022-11-25T05:04:51.037Z,571.00
2022-11-25T05:05:21.124Z,574.00
2022-11-25T05:05:51.217Z,574.00
2022-11-25T05:06:21.307Z,572.00
2022-11-25T05:06:51.385Z,570.00
2022-11-25T05:07:21.538Z,569.00
2022-11-25T05:07:51.518Z,570.00
2022-11-25T05:08:21.503Z,572.00
2022-11-25T05:08:51.582Z,570.00
2022-11-25T05:09:21.671Z,568.00
2022-11-25T05:09:51.761Z,568.00
2022-11-25T05:10:21.837Z,570.00
2022-11-25T05:10:51.931Z,572.00
2022-11-25T05:11:22.016Z,573.00
2022-11-25T05:11:52.113Z,575.00
2022-11-25T05:12:22.180Z,572.00
2022-11-25T05:12:52.259Z,572.00
2022-11-25T05:13:22.272Z,572.00
2022-11-25T05:13:52.283Z,571.00
2022-11-25T05:14:22.289Z,572.00
2022-11-25T05:14:52.295Z,574.00
2022-11-25T05:15:22.298Z,574.00
2022-11-25T05:15:52.325Z,573.00
2022-11-25T05:16:22.329Z,573.00
2022-11-25T05:16:52.511Z,573.00
2022-11-25T05:17:22.404Z,569.00
2022-11-25T05:17:52.409Z,570.00
2022-11-25T05:18:22.425Z,571.00
2022-11-25T05:18:52.426Z,571.00
2022-11-25T05:19:22.435Z,570.00
2022-11-25T05:19:52.439Z,570.00
2022-11-25T05:20:22.428Z,575.00
2022-11-25T05:20:52.440Z,580.00
2022-11-25T05:21:22.437Z,578.00
2022-11-25T05:21:52.452Z,581.00
2022-11-25T05:22:22.458Z,580.00
2022-11-25T05:22:52.469Z,580.00
2022-11-25T05:23:22.474Z,579.00
2022-11-25T05:23:55.794Z,580.00
2022-11-25T05:24:22.569Z,584.00
2022-11-25T05:24:52.586Z,585.00
2022-11-25T05:25:22.581Z,584.00
2022-11-25T05:25:52.602Z,588.00
2022-11-25T05:26:22.600Z,579.00
2022-11-25T05:26:52.617Z,579.00
2022-11-25T05:27:22.634Z,583.00
2022-11-25T05:27:52.649Z,584.00
2022-11-25T05:28:22.663Z,588.00
2022-11-25T05:28:52.668Z,592.00
2022-11-25T05:29:22.678Z,599.00
2022-11-25T05:29:56.020Z,598.00
2022-11-25T05:30:22.755Z,597.00
2022-11-25T05:30:52.783Z,595.00
2022-11-25T05:31:22.845Z,594.00
2022-11-25T05:31:52.838Z,596.00
2022-11-25T05:32:22.832Z,597.00
2022-11-25T05:32:52.834Z,601.00
2022-11-25T05:33:22.853Z,602.00
2022-11-25T05:33:52.858Z,603.00
2022-11-25T05:34:22.860Z,602.00
2022-11-25T05:34:52.984Z,604.00
2022-11-25T05:35:22.987Z,605.00
2022-11-25T05:35:53.000Z,606.00
2022-11-25T05:36:23.025Z,606.00
2022-11-25T05:36:53.028Z,607.00
2022-11-25T05:37:24.726Z,606.00
2022-11-25T05:37:53.059Z,609.00
2022-11-25T05:38:23.061Z,607.00
2022-11-25T05:38:53.063Z,608.00
2022-11-25T05:39:23.061Z,609.00
2022-11-25T05:39:53.080Z,608.00
2022-11-25T05:40:23.079Z,607.00
2022-11-25T05:40:53.085Z,609.00
2022-11-25T05:41:23.105Z,611.00
2022-11-25T05:41:53.103Z,610.00
2022-11-25T05:42:23.103Z,613.00
2022-11-25T05:42:53.127Z,613.00
2022-11-25T05:43:23.126Z,612.00
2022-11-25T05:43:53.130Z,612.00
2022-11-25T05:44:23.412Z,614.00
2022-11-25T05:44:53.194Z,614.00
2022-11-25T05:45:23.199Z,613.00
2022-11-25T05:45:53.338Z,614.00
2022-11-25T05:46:23.299Z,614.00
2022-11-25T05:46:53.329Z,616.00
2022-11-25T05:47:23.314Z,617.00
2022-11-25T05:47:53.330Z,620.00
2022-11-25T05:48:23.324Z,619.00
2022-11-25T05:48:53.332Z,620.00
2022-11-25T05:49:23.327Z,622.00
2022-11-25T05:49:53.346Z,621.00
2022-11-25T05:50:23.352Z,623.00
2022-11-25T05:50:53.379Z,622.00
2022-11-25T05:51:23.375Z,622.00
2022-11-25T05:51:53.374Z,621.00
2022-11-25T05:52:23.375Z,621.00
2022-11-25T05:52:53.373Z,620.00
2022-11-25T05:53:23.372Z,621.00
2022-11-25T05:53:53.387Z,620.00
2022-11-25T05:54:23.383Z,619.00
2022-11-25T05:54:57.232Z,622.00
2022-11-25T05:55:23.444Z,624.00
2022-11-25T05:55:53.471Z,623.00
2022-11-25T05:56:23.476Z,624.00
2022-11-25T05:56:53.482Z,624.00
2022-11-25T05:57:23.479Z,626.00
2022-11-25T05:57:53.476Z,627.00
2022-11-25T05:58:23.474Z,627.00
2022-11-25T05:58:53.494Z,629.00
2022-11-25T05:59:23.500Z,629.00
2022-11-25T05:59:53.507Z,628.00
2022-11-25T06:00:26.513Z,629.00
2022-11-25T06:00:53.595Z,631.00
2022-11-25T06:01:23.604Z,633.00
2022-11-25T06:01:53.610Z,634.00
2022-11-25T06:02:23.684Z,635.00
2022-11-25T06:02:53.898Z,634.00
2022-11-25T06:03:23.799Z,636.00
2022-11-25T06:03:53.753Z,635.00
2022-11-25T06:04:23.839Z,636.00
2022-11-25T06:04:53.923Z,635.00
2022-11-25T06:05:24.002Z,638.00
2022-11-25T06:05:54.118Z,642.00
2022-11-25T06:06:24.203Z,644.00
2022-11-25T06:06:54.285Z,643.00
2022-11-25T06:07:24.433Z,643.00
2022-11-25T06:07:54.490Z,642.00
2022-11-25T06:08:24.449Z,643.00
2022-11-25T06:08:54.526Z,642.00
2022-11-25T06:09:24.610Z,644.00
2022-11-25T06:09:58.766Z,646.00
2022-11-25T06:10:24.772Z,647.00
2022-11-25T06:10:54.855Z,646.00
2022-11-25T06:11:24.937Z,645.00
2022-11-25T06:11:55.021Z,643.00
2022-11-25T06:12:25.105Z,645.00
2022-11-25T06:12:55.212Z,649.00
2022-11-25T06:13:25.218Z,653.00
2022-11-25T06:13:55.236Z,654.00
2022-11-25T06:14:25.241Z,657.00